sensor_id;sensor_type;location;lat;lon;timestamp;pressure;altitude;pressure_sealevel;temperature;humidity
39891;BME280;25564;53.312;9.790;2023-05-03T00:00:49;102107.34;;;5.77;70.31
39891;BME280;25564;53.312;9.790;2023-05-03T00:03:21;102108.78;;;5.64;70.82
39891;BME280;25564;53.312;9.790;2023-05-03T00:05:55;102099.41;;;5.41;70.89
39891;BME280;25564;53.312;9.790;2023-05-03T00:08:27;102116.75;;;5.33;70.85
39891;BME280;25564;53.312;9.790;2023-05-03T00:10:59;102113.78;;;5.20;71.56
39891;BME280;25564;53.312;9.790;2023-05-03T00:13:30;102114.41;;;5.10;72.18
39891;BME280;25564;53.312;9.790;2023-05-03T00:16:02;102107.03;;;4.97;71.33
39891;BME280;25564;53.312;9.790;2023-05-03T00:18:33;102098.78;;;4.83;71.28
39891;BME280;25564;53.312;9.790;2023-05-03T00:21:06;102105.69;;;4.80;70.82
39891;BME280;25564;53.312;9.790;2023-05-03T00:23:37;102099.03;;;4.63;71.58
39891;BME280;25564;53.312;9.790;2023-05-03T00:26:08;102114.91;;;4.66;71.99
39891;BME280;25564;53.312;9.790;2023-05-03T00:28:40;102113.13;;;4.65;71.69
39891;BME280;25564;53.312;9.790;2023-05-03T00:31:11;102111.44;;;4.67;72.80
39891;BME280;25564;53.312;9.790;2023-05-03T00:33:43;102102.59;;;4.65;72.12
39891;BME280;25564;53.312;9.790;2023-05-03T00:36:14;102116.16;;;4.78;72.12
39891;BME280;25564;53.312;9.790;2023-05-03T00:38:45;102115.25;;;4.78;72.63
39891;BME280;25564;53.312;9.790;2023-05-03T00:41:17;102114.19;;;4.71;71.57
39891;BME280;25564;53.312;9.790;2023-05-03T00:43:48;102084.56;;;4.47;72.15
39891;BME280;25564;53.312;9.790;2023-05-03T00:46:19;102103.75;;;4.44;72.73
39891;BME280;25564;53.312;9.790;2023-05-03T00:48:51;102109.81;;;4.42;72.24
39891;BME280;25564;53.312;9.790;2023-05-03T00:51:25;102101.56;;;4.30;72.92
39891;BME280;25564;53.312;9.790;2023-05-03T00:53:57;102113.63;;;4.23;72.93
39891;BME280;25564;53.312;9.790;2023-05-03T00:56:29;102117.81;;;4.16;72.54
39891;BME280;25564;53.312;9.790;2023-05-03T00:59:08;102119.28;;;4.07;73.27
39891;BME280;25564;53.312;9.790;2023-05-03T01:01:39;102106.66;;;3.95;72.86
39891;BME280;25564;53.312;9.790;2023-05-03T01:04:11;102109.13;;;3.90;73.03
39891;BME280;25564;53.312;9.790;2023-05-03T01:06:57;102102.78;;;3.84;73.10
39891;BME280;25564;53.312;9.790;2023-05-03T01:09:44;102090.66;;;3.60;73.72
39891;BME280;25564;53.312;9.790;2023-05-03T01:15:16;102108.94;;;3.57;73.32
39891;BME280;25564;53.312;9.790;2023-05-03T01:17:57;102114.19;;;3.57;73.94
39891;BME280;25564;53.312;9.790;2023-05-03T01:20:31;102116.44;;;3.47;73.78
39891;BME280;25564;53.312;9.790;2023-05-03T01:23:10;102125.88;;;3.42;73.30
39891;BME280;25564;53.312;9.790;2023-05-03T01:25:44;102128.31;;;3.36;73.37
39891;BME280;25564;53.312;9.790;2023-05-03T01:28:15;102129.81;;;3.29;73.38
39891;BME280;25564;53.312;9.790;2023-05-03T01:30:49;102126.94;;;3.21;73.83
39891;BME280;25564;53.312;9.790;2023-05-03T01:33:32;102129.56;;;3.21;73.96
39891;BME280;25564;53.312;9.790;2023-05-03T01:36:12;102102.50;;;2.97;74.20
39891;BME280;25564;53.312;9.790;2023-05-03T01:38:43;102138.88;;;3.12;74.37
39891;BME280;25564;53.312;9.790;2023-05-03T01:41:15;102136.91;;;3.06;74.05
39891;BME280;25564;53.312;9.790;2023-05-03T01:43:48;102134.13;;;3.02;74.47
39891;BME280;25564;53.312;9.790;2023-05-03T01:46:21;102141.00;;;2.98;74.47
39891;BME280;25564;53.312;9.790;2023-05-03T01:48:53;102121.31;;;2.85;74.16
39891;BME280;25564;53.312;9.790;2023-05-03T01:51:24;102138.16;;;2.92;74.50
39891;BME280;25564;53.312;9.790;2023-05-03T01:53:56;102137.09;;;2.87;74.33
39891;BME280;25564;53.312;9.790;2023-05-03T01:56:28;102118.28;;;2.75;74.29
39891;BME280;25564;53.312;9.790;2023-05-03T01:59:01;102134.84;;;2.74;74.38
39891;BME280;25564;53.312;9.790;2023-05-03T02:01:32;102142.59;;;2.71;74.97
39891;BME280;25564;53.312;9.790;2023-05-03T02:04:04;102143.31;;;2.67;74.66
39891;BME280;25564;53.312;9.790;2023-05-03T02:06:35;102144.03;;;2.62;74.67
39891;BME280;25564;53.312;9.790;2023-05-03T02:09:07;102130.34;;;2.47;75.08
39891;BME280;25564;53.312;9.790;2023-05-03T02:11:38;102149.06;;;2.56;74.90
39891;BME280;25564;53.312;9.790;2023-05-03T02:14:10;102132.09;;;2.47;75.11
39891;BME280;25564;53.312;9.790;2023-05-03T02:16:42;102135.25;;;2.38;74.92
39891;BME280;25564;53.312;9.790;2023-05-03T02:19:13;102144.06;;;2.40;75.18
39891;BME280;25564;53.312;9.790;2023-05-03T02:21:45;102162.75;;;2.49;75.33
39891;BME280;25564;53.312;9.790;2023-05-03T02:24:16;102159.19;;;2.47;75.22
39891;BME280;25564;53.312;9.790;2023-05-03T02:26:47;102162.63;;;2.46;75.56
39891;BME280;25564;53.312;9.790;2023-05-03T02:29:19;102165.38;;;2.49;75.39
39891;BME280;25564;53.312;9.790;2023-05-03T02:31:50;102167.28;;;2.53;75.26
39891;BME280;25564;53.312;9.790;2023-05-03T02:34:22;102154.06;;;2.50;74.89
39891;BME280;25564;53.312;9.790;2023-05-03T02:36:53;102145.34;;;2.51;75.05
39891;BME280;25564;53.312;9.790;2023-05-03T02:39:24;102151.66;;;2.56;75.19
39891;BME280;25564;53.312;9.790;2023-05-03T02:41:56;102157.91;;;2.60;75.31
39891;BME280;25564;53.312;9.790;2023-05-03T02:44:27;102163.22;;;2.61;75.31
39891;BME280;25564;53.312;9.790;2023-05-03T02:46:58;102144.63;;;2.55;75.20
39891;BME280;25564;53.312;9.790;2023-05-03T02:49:30;102166.31;;;2.74;75.58
39891;BME280;25564;53.312;9.790;2023-05-03T02:52:01;102172.84;;;2.85;75.53
39891;BME280;25564;53.312;9.790;2023-05-03T02:54:33;102174.00;;;2.93;75.38
39891;BME280;25564;53.312;9.790;2023-05-03T02:57:04;102170.72;;;2.99;75.05
39891;BME280;25564;53.312;9.790;2023-05-03T02:59:36;102169.09;;;3.02;75.54
39891;BME280;25564;53.312;9.790;2023-05-03T03:02:07;102174.56;;;3.08;75.62
39891;BME280;25564;53.312;9.790;2023-05-03T03:04:39;102167.72;;;3.13;75.51
39891;BME280;25564;53.312;9.790;2023-05-03T03:07:10;102174.16;;;3.21;75.86
39891;BME280;25564;53.312;9.790;2023-05-03T03:09:41;102181.56;;;3.33;75.56
39891;BME280;25564;53.312;9.790;2023-05-03T03:12:13;102181.84;;;3.41;75.32
39891;BME280;25564;53.312;9.790;2023-05-03T03:14:44;102177.75;;;3.49;75.68
39891;BME280;25564;53.312;9.790;2023-05-03T03:17:15;102175.38;;;3.56;75.38
39891;BME280;25564;53.312;9.790;2023-05-03T03:19:47;102174.81;;;3.65;75.38
39891;BME280;25564;53.312;9.790;2023-05-03T03:22:18;102157.38;;;3.67;75.94
39891;BME280;25564;53.312;9.790;2023-05-03T03:24:50;102136.28;;;3.64;75.08
39891;BME280;25564;53.312;9.790;2023-05-03T03:27:22;102169.38;;;3.86;75.44
39891;BME280;25564;53.312;9.790;2023-05-03T03:29:54;102163.34;;;3.88;75.45
39891;BME280;25564;53.312;9.790;2023-05-03T03:32:25;102164.34;;;3.92;74.65
39891;BME280;25564;53.312;9.790;2023-05-03T03:34:56;102158.25;;;3.93;74.87
39891;BME280;25564;53.312;9.790;2023-05-03T03:37:28;102156.69;;;4.00;74.90
39891;BME280;25564;53.312;9.790;2023-05-03T03:39:59;102159.63;;;4.09;75.64
39891;BME280;25564;53.312;9.790;2023-05-03T03:42:31;102148.38;;;4.13;76.03
39891;BME280;25564;53.312;9.790;2023-05-03T03:45:02;102146.88;;;4.22;75.68
39891;BME280;25564;53.312;9.790;2023-05-03T03:47:34;102171.63;;;4.29;75.56
39891;BME280;25564;53.312;9.790;2023-05-03T03:50:06;102145.06;;;4.20;75.12
39891;BME280;25564;53.312;9.790;2023-05-03T03:52:37;102157.75;;;4.33;75.35
39891;BME280;25564;53.312;9.790;2023-05-03T03:55:09;102162.53;;;4.46;75.98
39891;BME280;25564;53.312;9.790;2023-05-03T03:57:41;102161.88;;;4.53;75.23
39891;BME280;25564;53.312;9.790;2023-05-03T04:00:12;102163.00;;;4.62;75.86
39891;BME280;25564;53.312;9.790;2023-05-03T04:02:44;102160.44;;;4.65;75.66
39891;BME280;25564;53.312;9.790;2023-05-03T04:05:17;102164.09;;;4.70;76.35
39891;BME280;25564;53.312;9.790;2023-05-03T04:07:48;102158.06;;;4.72;75.87
39891;BME280;25564;53.312;9.790;2023-05-03T04:10:20;102159.03;;;4.76;76.08
39891;BME280;25564;53.312;9.790;2023-05-03T04:12:51;102144.94;;;4.74;75.64
39891;BME280;25564;53.312;9.790;2023-05-03T04:15:23;102160.22;;;4.87;75.43
39891;BME280;25564;53.312;9.790;2023-05-03T04:17:54;102152.56;;;4.95;75.58
39891;BME280;25564;53.312;9.790;2023-05-03T04:20:25;102148.41;;;5.03;75.35
39891;BME280;25564;53.312;9.790;2023-05-03T04:22:57;102150.44;;;5.13;75.74
39891;BME280;25564;53.312;9.790;2023-05-03T04:25:28;102162.09;;;5.22;76.22
39891;BME280;25564;53.312;9.790;2023-05-03T04:28:02;102142.59;;;5.14;75.31
39891;BME280;25564;53.312;9.790;2023-05-03T04:30:33;102160.56;;;5.31;74.77
39891;BME280;25564;53.312;9.790;2023-05-03T04:33:08;102162.47;;;5.36;75.95
39891;BME280;25564;53.312;9.790;2023-05-03T04:35:39;102171.41;;;5.43;75.95
39891;BME280;25564;53.312;9.790;2023-05-03T04:38:11;102176.06;;;5.53;75.60
39891;BME280;25564;53.312;9.790;2023-05-03T04:40:42;102177.25;;;5.64;75.85
39891;BME280;25564;53.312;9.790;2023-05-03T04:43:14;102160.63;;;5.67;75.13
39891;BME280;25564;53.312;9.790;2023-05-03T04:45:45;102176.88;;;5.83;76.09
39891;BME280;25564;53.312;9.790;2023-05-03T04:48:17;102178.13;;;5.98;74.95
39891;BME280;25564;53.312;9.790;2023-05-03T04:50:48;102179.25;;;6.07;75.10
39891;BME280;25564;53.312;9.790;2023-05-03T04:53:20;102182.16;;;6.18;75.23
39891;BME280;25564;53.312;9.790;2023-05-03T04:55:51;102176.94;;;6.21;75.65
39891;BME280;25564;53.312;9.790;2023-05-03T04:58:22;102177.13;;;6.30;75.11
39891;BME280;25564;53.312;9.790;2023-05-03T05:00:54;102190.72;;;6.47;75.17
39891;BME280;25564;53.312;9.790;2023-05-03T05:03:25;102194.34;;;6.52;75.47
39891;BME280;25564;53.312;9.790;2023-05-03T05:05:57;102167.78;;;6.44;74.93
39891;BME280;25564;53.312;9.790;2023-05-03T05:08:28;102191.97;;;6.64;74.83
39891;BME280;25564;53.312;9.790;2023-05-03T05:11:01;102199.06;;;6.67;75.19
39891;BME280;25564;53.312;9.790;2023-05-03T05:13:34;102202.84;;;6.78;75.25
39891;BME280;25564;53.312;9.790;2023-05-03T05:16:06;102185.25;;;6.78;74.70
39891;BME280;25564;53.312;9.790;2023-05-03T05:18:37;102198.81;;;6.95;75.10
39891;BME280;25564;53.312;9.790;2023-05-03T05:21:09;102190.97;;;6.98;74.70
39891;BME280;25564;53.312;9.790;2023-05-03T05:23:40;102205.44;;;7.17;74.94
39891;BME280;25564;53.312;9.790;2023-05-03T05:26:12;102209.13;;;7.28;74.65
39891;BME280;25564;53.312;9.790;2023-05-03T05:28:43;102210.31;;;7.42;74.71
39891;BME280;25564;53.312;9.790;2023-05-03T05:31:14;102210.63;;;7.59;74.38
39891;BME280;25564;53.312;9.790;2023-05-03T05:33:46;102210.94;;;7.76;74.43
39891;BME280;25564;53.312;9.790;2023-05-03T05:36:17;102210.31;;;7.91;74.40
39891;BME280;25564;53.312;9.790;2023-05-03T05:38:48;102213.16;;;8.03;74.10
39891;BME280;25564;53.312;9.790;2023-05-03T05:41:20;102221.31;;;8.15;74.10
39891;BME280;25564;53.312;9.790;2023-05-03T05:43:51;102215.38;;;8.30;73.60
39891;BME280;25564;53.312;9.790;2023-05-03T05:46:23;102222.69;;;8.46;73.46
39891;BME280;25564;53.312;9.790;2023-05-03T05:48:54;102214.06;;;8.59;73.14
39891;BME280;25564;53.312;9.790;2023-05-03T05:51:26;102213.31;;;8.69;72.71
39891;BME280;25564;53.312;9.790;2023-05-03T05:53:58;102208.22;;;8.83;73.01
39891;BME280;25564;53.312;9.790;2023-05-03T05:56:29;102228.88;;;9.10;73.02
39891;BME280;25564;53.312;9.790;2023-05-03T05:59:00;102204.22;;;9.15;72.90
39891;BME280;25564;53.312;9.790;2023-05-03T06:01:31;102212.44;;;9.41;72.45
39891;BME280;25564;53.312;9.790;2023-05-03T06:04:04;102235.72;;;9.68;71.99
39891;BME280;25564;53.312;9.790;2023-05-03T06:06:35;102231.47;;;9.86;71.35
39891;BME280;25564;53.312;9.790;2023-05-03T06:09:07;102239.56;;;10.01;71.40
39891;BME280;25564;53.312;9.790;2023-05-03T06:11:54;102245.91;;;10.16;70.82
39891;BME280;25564;53.312;9.790;2023-05-03T06:14:25;102239.00;;;10.32;70.27
39891;BME280;25564;53.312;9.790;2023-05-03T06:16:57;102241.72;;;10.44;70.08
39891;BME280;25564;53.312;9.790;2023-05-03T06:19:30;102243.50;;;10.48;69.75
39891;BME280;25564;53.312;9.790;2023-05-03T06:22:01;102245.22;;;10.40;69.64
39891;BME280;25564;53.312;9.790;2023-05-03T06:24:32;102236.44;;;10.47;69.64
39891;BME280;25564;53.312;9.790;2023-05-03T06:27:04;102248.81;;;10.48;69.28
39891;BME280;25564;53.312;9.790;2023-05-03T06:29:36;102244.72;;;10.99;69.86
39891;BME280;25564;53.312;9.790;2023-05-03T06:32:07;102249.41;;;11.70;69.20
39891;BME280;25564;53.312;9.790;2023-05-03T06:34:38;102245.94;;;12.17;68.48
39891;BME280;25564;53.312;9.790;2023-05-03T06:37:09;102251.28;;;12.48;67.55
39891;BME280;25564;53.312;9.790;2023-05-03T06:39:41;102244.13;;;12.53;66.82
39891;BME280;25564;53.312;9.790;2023-05-03T06:42:12;102248.56;;;12.69;66.84
39891;BME280;25564;53.312;9.790;2023-05-03T06:44:44;102248.53;;;12.87;66.30
39891;BME280;25564;53.312;9.790;2023-05-03T06:47:15;102252.88;;;13.20;66.04
39891;BME280;25564;53.312;9.790;2023-05-03T06:49:47;102232.34;;;13.45;65.23
39891;BME280;25564;53.312;9.790;2023-05-03T06:52:18;102249.03;;;13.78;64.71
39891;BME280;25564;53.312;9.790;2023-05-03T06:54:49;102259.63;;;13.87;64.31
39891;BME280;25564;53.312;9.790;2023-05-03T06:57:21;102259.63;;;13.90;63.99
39891;BME280;25564;53.312;9.790;2023-05-03T06:59:52;102249.81;;;13.92;63.52
39891;BME280;25564;53.312;9.790;2023-05-03T07:02:24;102249.03;;;13.78;63.33
39891;BME280;25564;53.312;9.790;2023-05-03T07:04:57;102254.50;;;13.53;63.16
39891;BME280;25564;53.312;9.790;2023-05-03T07:07:28;102261.72;;;13.36;62.97
39891;BME280;25564;53.312;9.790;2023-05-03T07:09:59;102261.72;;;13.36;62.87
39891;BME280;25564;53.312;9.790;2023-05-03T07:12:31;102264.34;;;13.44;62.57
39891;BME280;25564;53.312;9.790;2023-05-03T07:15:03;102263.47;;;13.43;62.20
39891;BME280;25564;53.312;9.790;2023-05-03T07:17:34;102266.13;;;13.41;61.88
39891;BME280;25564;53.312;9.790;2023-05-03T07:20:06;102266.13;;;13.41;61.55
39891;BME280;25564;53.312;9.790;2023-05-03T07:22:37;102272.34;;;13.42;61.51
39891;BME280;25564;53.312;9.790;2023-05-03T07:25:09;102263.44;;;13.46;61.79
39891;BME280;25564;53.312;9.790;2023-05-03T07:27:42;102260.66;;;13.61;61.26
39891;BME280;25564;53.312;9.790;2023-05-03T07:30:14;102262.41;;;13.71;61.26
39891;BME280;25564;53.312;9.790;2023-05-03T07:32:45;102263.31;;;13.67;60.65
39891;BME280;25564;53.312;9.790;2023-05-03T07:35:17;102253.50;;;13.69;60.82
39891;BME280;25564;53.312;9.790;2023-05-03T07:37:49;102256.06;;;13.88;60.52
39891;BME280;25564;53.312;9.790;2023-05-03T07:40:21;102242.91;;;13.60;59.65
39891;BME280;25564;53.312;9.790;2023-05-03T07:42:52;102258.16;;;13.34;59.59
39891;BME280;25564;53.312;9.790;2023-05-03T07:45:23;102252.00;;;13.15;59.50
39891;BME280;25564;53.312;9.790;2023-05-03T07:47:55;102241.41;;;12.88;59.48
39891;BME280;25564;53.312;9.790;2023-05-03T07:50:27;102256.53;;;12.80;59.80
39891;BME280;25564;53.312;9.790;2023-05-03T07:52:58;102263.63;;;12.73;59.39
39891;BME280;25564;53.312;9.790;2023-05-03T07:55:29;102269.00;;;12.52;59.67
39891;BME280;25564;53.312;9.790;2023-05-03T07:58:03;102266.38;;;12.38;59.41
39891;BME280;25564;53.312;9.790;2023-05-03T08:00:35;102261.03;;;12.29;59.86
39891;BME280;25564;53.312;9.790;2023-05-03T08:03:06;102264.59;;;12.31;59.62
39891;BME280;25564;53.312;9.790;2023-05-03T08:05:38;102262.81;;;12.43;59.35
39891;BME280;25564;53.312;9.790;2023-05-03T08:08:09;102268.09;;;12.53;58.86
39891;BME280;25564;53.312;9.790;2023-05-03T08:10:40;102257.47;;;12.48;58.50
39891;BME280;25564;53.312;9.790;2023-05-03T08:13:12;102261.94;;;12.48;58.02
39891;BME280;25564;53.312;9.790;2023-05-03T08:15:43;102269.88;;;12.51;57.70
39891;BME280;25564;53.312;9.790;2023-05-03T08:18:16;102266.31;;;12.59;57.42
39891;BME280;25564;53.312;9.790;2023-05-03T08:20:47;102274.31;;;12.61;57.04
39891;BME280;25564;53.312;9.790;2023-05-03T08:23:21;102254.75;;;12.74;56.60
39891;BME280;25564;53.312;9.790;2023-05-03T08:25:52;102259.09;;;13.13;56.58
39891;BME280;25564;53.312;9.790;2023-05-03T08:28:24;102253.75;;;13.25;55.92
39891;BME280;25564;53.312;9.790;2023-05-03T08:30:56;102249.34;;;13.20;55.57
39891;BME280;25564;53.312;9.790;2023-05-03T08:33:28;102261.75;;;13.15;55.42
39891;BME280;25564;53.312;9.790;2023-05-03T08:35:59;102272.44;;;13.12;55.67
39891;BME280;25564;53.312;9.790;2023-05-03T08:38:32;102262.66;;;13.12;55.63
39891;BME280;25564;53.312;9.790;2023-05-03T08:41:16;102259.13;;;13.05;55.30
39891;BME280;25564;53.312;9.790;2023-05-03T08:43:52;102272.47;;;13.04;55.53
39891;BME280;25564;53.312;9.790;2023-05-03T08:46:24;102269.81;;;12.98;55.55
39891;BME280;25564;53.312;9.790;2023-05-03T08:48:57;102252.97;;;12.76;55.59
39891;BME280;25564;53.312;9.790;2023-05-03T08:51:29;102269.84;;;12.72;55.81
39891;BME280;25564;53.312;9.790;2023-05-03T08:54:00;102265.44;;;12.68;55.89
39891;BME280;25564;53.312;9.790;2023-05-03T08:56:37;102265.41;;;12.83;56.09
39891;BME280;25564;53.312;9.790;2023-05-03T08:59:10;102271.53;;;13.16;55.59
39891;BME280;25564;53.312;9.790;2023-05-03T09:01:42;102273.25;;;13.38;55.01
39891;BME280;25564;53.312;9.790;2023-05-03T09:04:13;102275.81;;;13.56;54.88
39891;BME280;25564;53.312;9.790;2023-05-03T09:06:45;102274.03;;;13.57;54.03
39891;BME280;25564;53.312;9.790;2023-05-03T09:09:30;102271.47;;;13.45;53.49
39891;BME280;25564;53.312;9.790;2023-05-03T09:12:02;102273.19;;;13.52;54.09
39891;BME280;25564;53.312;9.790;2023-05-03T09:14:41;102277.66;;;13.51;53.58
39891;BME280;25564;53.312;9.790;2023-05-03T09:17:15;102281.22;;;13.50;53.70
39891;BME280;25564;53.312;9.790;2023-05-03T09:19:52;102285.72;;;13.34;53.42
39891;BME280;25564;53.312;9.790;2023-05-03T09:22:29;102284.88;;;13.22;53.54
39891;BME280;25564;53.312;9.790;2023-05-03T09:25:01;102278.66;;;13.20;53.83
39891;BME280;25564;53.312;9.790;2023-05-03T09:27:32;102291.06;;;13.31;53.55
39891;BME280;25564;53.312;9.790;2023-05-03T09:30:17;102275.91;;;13.41;52.69
39891;BME280;25564;53.312;9.790;2023-05-03T09:32:49;102296.28;;;13.54;53.06
39891;BME280;25564;53.312;9.790;2023-05-03T09:35:21;102297.16;;;13.53;52.71
39891;BME280;25564;53.312;9.790;2023-05-03T09:37:52;102293.63;;;13.53;52.88
39891;BME280;25564;53.312;9.790;2023-05-03T09:40:24;102287.50;;;13.31;52.78
39891;BME280;25564;53.312;9.790;2023-05-03T09:43:10;102288.38;;;13.39;52.68
39891;BME280;25564;53.312;9.790;2023-05-03T09:45:41;102284.69;;;13.61;53.08
39891;BME280;25564;53.312;9.790;2023-05-03T09:48:13;102286.47;;;13.59;52.42
39891;BME280;25564;53.312;9.790;2023-05-03T09:50:44;102291.81;;;13.56;52.67
39891;BME280;25564;53.312;9.790;2023-05-03T09:53:18;102286.53;;;13.50;52.69
39891;BME280;25564;53.312;9.790;2023-05-03T09:55:50;102283.81;;;13.55;52.60
39891;BME280;25564;53.312;9.790;2023-05-03T09:58:23;102277.56;;;13.60;52.61
39891;BME280;25564;53.312;9.790;2023-05-03T10:00:56;102285.50;;;13.72;52.32
39891;BME280;25564;53.312;9.790;2023-05-03T10:03:31;102285.41;;;13.89;51.75
39891;BME280;25564;53.312;9.790;2023-05-03T10:06:06;102285.47;;;13.80;51.96
39891;BME280;25564;53.312;9.790;2023-05-03T10:08:48;102281.06;;;13.74;51.89
39891;BME280;25564;53.312;9.790;2023-05-03T10:11:23;102279.25;;;13.78;51.47
39891;BME280;25564;53.312;9.790;2023-05-03T10:13:56;102278.41;;;13.71;51.61
39891;BME280;25564;53.312;9.790;2023-05-03T10:16:30;102277.41;;;13.88;51.59
39891;BME280;25564;53.312;9.790;2023-05-03T10:19:12;102278.34;;;13.81;50.87
39891;BME280;25564;53.312;9.790;2023-05-03T10:21:54;102280.13;;;13.83;50.92
39891;BME280;25564;53.312;9.790;2023-05-03T10:24:29;102270.09;;;14.17;51.29
39891;BME280;25564;53.312;9.790;2023-05-03T10:27:00;102267.16;;;14.54;50.84
39891;BME280;25564;53.312;9.790;2023-05-03T10:32:05;102263.13;;;14.97;50.08
39891;BME280;25564;53.312;9.790;2023-05-03T10:34:36;102265.50;;;15.25;49.63
39891;BME280;25564;53.312;9.790;2023-05-03T10:37:10;102261.41;;;15.65;49.12
39891;BME280;25564;53.312;9.790;2023-05-03T10:39:44;102261.16;;;15.82;48.37
39891;BME280;25564;53.312;9.790;2023-05-03T10:42:20;102256.81;;;15.75;48.26
39891;BME280;25564;53.312;9.790;2023-05-03T10:44:53;102248.13;;;15.59;48.58
39891;BME280;25564;53.312;9.790;2023-05-03T10:47:25;102265.06;;;15.60;48.15
39891;BME280;25564;53.312;9.790;2023-05-03T10:52:47;102254.22;;;14.98;48.49
39891;BME280;25564;53.312;9.790;2023-05-03T10:55:20;102238.47;;;14.69;47.96
39891;BME280;25564;53.312;9.790;2023-05-03T10:57:55;102250.91;;;14.73;48.26
39891;BME280;25564;53.312;9.790;2023-05-03T11:00:41;102234.34;;;14.35;48.01
39891;BME280;25564;53.312;9.790;2023-05-03T11:06:06;102252.16;;;14.36;48.73
39891;BME280;25564;53.312;9.790;2023-05-03T11:08:38;102252.38;;;15.02;48.04
39891;BME280;25564;53.312;9.790;2023-05-03T11:11:10;102245.81;;;15.29;47.74
39891;BME280;25564;53.312;9.790;2023-05-03T11:13:42;102252.75;;;15.45;47.87
39891;BME280;25564;53.312;9.790;2023-05-03T11:16:14;102257.06;;;15.55;47.39
39891;BME280;25564;53.312;9.790;2023-05-03T11:18:46;102248.25;;;15.49;47.27
39891;BME280;25564;53.312;9.790;2023-05-03T11:21:19;102243.13;;;15.32;47.20
39891;BME280;25564;53.312;9.790;2023-05-03T11:23:51;102250.91;;;15.50;47.33
39891;BME280;25564;53.312;9.790;2023-05-03T11:26:22;102252.84;;;16.02;46.97
39891;BME280;25564;53.312;9.790;2023-05-03T11:28:56;102240.66;;;16.37;46.80
39891;BME280;25564;53.312;9.790;2023-05-03T11:31:28;102249.25;;;16.57;46.23
39891;BME280;25564;53.312;9.790;2023-05-03T11:33:59;102247.72;;;16.42;46.40
39891;BME280;25564;53.312;9.790;2023-05-03T11:36:30;102244.63;;;16.13;46.41
39891;BME280;25564;53.312;9.790;2023-05-03T11:39:02;102239.53;;;15.96;45.83
39891;BME280;25564;53.312;9.790;2023-05-03T11:41:36;102244.81;;;16.02;46.03
39891;BME280;25564;53.312;9.790;2023-05-03T11:44:07;102244.19;;;16.39;45.66
39891;BME280;25564;53.312;9.790;2023-05-03T11:46:45;102239.91;;;16.79;45.40
39891;BME280;25564;53.312;9.790;2023-05-03T11:49:17;102244.47;;;17.19;45.32
39891;BME280;25564;53.312;9.790;2023-05-03T11:51:50;102242.84;;;17.12;44.98
39891;BME280;25564;53.312;9.790;2023-05-03T11:54:25;102248.38;;;16.55;45.04
39891;BME280;25564;53.312;9.790;2023-05-03T11:56:58;102252.19;;;15.85;45.36
39891;BME280;25564;53.312;9.790;2023-05-03T11:59:37;102235.97;;;15.34;45.85
39891;BME280;25564;53.312;9.790;2023-05-03T12:02:11;102239.97;;;14.98;46.03
39891;BME280;25564;53.312;9.790;2023-05-03T12:04:44;102243.63;;;14.88;46.35
39891;BME280;25564;53.312;9.790;2023-05-03T12:07:35;102230.16;;;14.98;46.93
39891;BME280;25564;53.312;9.790;2023-05-03T12:10:15;102219.31;;;15.11;46.34
39891;BME280;25564;53.312;9.790;2023-05-03T12:12:57;102227.25;;;15.17;46.18
39891;BME280;25564;53.312;9.790;2023-05-03T12:15:34;102223.81;;;15.07;46.49
39891;BME280;25564;53.312;9.790;2023-05-03T12:18:09;102227.25;;;15.17;46.25
39891;BME280;25564;53.312;9.790;2023-05-03T12:20:41;102228.69;;;15.44;46.18
39891;BME280;25564;53.312;9.790;2023-05-03T12:23:32;102224.78;;;15.67;45.97
39891;BME280;25564;53.312;9.790;2023-05-03T12:26:04;102224.06;;;15.58;45.81
39891;BME280;25564;53.312;9.790;2023-05-03T12:28:37;102222.25;;;15.60;45.96
39891;BME280;25564;53.312;9.790;2023-05-03T12:31:09;102211.94;;;15.92;46.22
39891;BME280;25564;53.312;9.790;2023-05-03T12:33:40;102205.47;;;16.06;45.62
39891;BME280;25564;53.312;9.790;2023-05-03T12:36:14;102200.97;;;16.08;45.41
39891;BME280;25564;53.312;9.790;2023-05-03T12:38:46;102202.44;;;16.27;45.07
39891;BME280;25564;53.312;9.790;2023-05-03T12:41:20;102202.03;;;16.50;45.04
39891;BME280;25564;53.312;9.790;2023-05-03T12:44:13;102202.34;;;16.79;45.00
39891;BME280;25564;53.312;9.790;2023-05-03T12:46:47;102193.53;;;16.74;44.74
39891;BME280;25564;53.312;9.790;2023-05-03T12:49:23;102195.59;;;16.60;44.19
39891;BME280;25564;53.312;9.790;2023-05-03T12:51:55;102182.66;;;16.34;44.35
39891;BME280;25564;53.312;9.790;2023-05-03T12:54:50;102190.28;;;16.06;44.91
39891;BME280;25564;53.312;9.790;2023-05-03T12:57:26;102192.31;;;15.90;44.06
39891;BME280;25564;53.312;9.790;2023-05-03T13:00:00;102195.25;;;15.75;45.49
39891;BME280;25564;53.312;9.790;2023-05-03T13:02:34;102192.41;;;15.84;46.00
39891;BME280;25564;53.312;9.790;2023-05-03T13:05:08;102175.91;;;15.56;45.43
39891;BME280;25564;53.312;9.790;2023-05-03T13:07:56;102186.63;;;15.53;45.21
39891;BME280;25564;53.312;9.790;2023-05-03T13:10:29;102178.59;;;15.55;45.67
39891;BME280;25564;53.312;9.790;2023-05-03T13:13:00;102178.56;;;15.56;44.94
39891;BME280;25564;53.312;9.790;2023-05-03T13:15:33;102164.75;;;15.25;45.36
39891;BME280;25564;53.312;9.790;2023-05-03T13:18:05;102177.09;;;15.35;45.69
39891;BME280;25564;53.312;9.790;2023-05-03T13:20:36;102173.56;;;15.32;45.92
39891;BME280;25564;53.312;9.790;2023-05-03T13:23:09;102175.88;;;15.59;45.49
39891;BME280;25564;53.312;9.790;2023-05-03T13:25:40;102171.75;;;15.94;45.18
39891;BME280;25564;53.312;9.790;2023-05-03T13:28:12;102184.06;;;16.04;44.57
39891;BME280;25564;53.312;9.790;2023-05-03T13:30:43;102170.16;;;15.81;44.38
39891;BME280;25564;53.312;9.790;2023-05-03T13:33:14;102168.44;;;15.77;44.96
39891;BME280;25564;53.312;9.790;2023-05-03T13:35:46;102136.44;;;15.70;44.59